createdAt,value
2019-03-11T00:00:06.807Z,18.80
2019-03-11T00:27:11.028Z,18.80
2019-03-11T00:40:33.833Z,18.90
2019-03-11T00:53:56.639Z,19.00
2019-03-11T01:07:19.416Z,19.00
2019-03-11T01:20:42.243Z,19.00
2019-03-11T01:34:05.020Z,19.00
2019-03-11T01:47:27.876Z,19.00
2019-03-11T02:00:50.699Z,19.00
2019-03-11T02:14:13.516Z,19.00
2019-03-11T02:27:36.318Z,19.00
2019-03-11T02:40:59.136Z,19.00
2019-03-11T02:54:21.934Z,19.00
2019-03-11T03:07:44.740Z,19.00
2019-03-11T03:21:07.566Z,19.00
2019-03-11T03:34:30.401Z,19.00
2019-03-11T03:47:53.307Z,18.90
2019-03-11T04:01:16.008Z,18.90
2019-03-11T04:14:38.853Z,18.90
2019-03-11T04:28:01.672Z,18.90
2019-03-11T04:41:24.470Z,18.90
2019-03-11T04:54:47.294Z,18.90
2019-03-11T05:08:10.118Z,18.90
2019-03-11T05:21:32.963Z,18.90
2019-03-11T05:34:55.774Z,18.90
2019-03-11T05:48:18.554Z,18.90
2019-03-11T06:01:41.416Z,18.90
2019-03-11T06:15:04.159Z,18.90
2019-03-11T06:28:27.016Z,18.90
2019-03-11T06:41:49.830Z,18.80
2019-03-11T06:55:12.658Z,18.60
2019-03-11T07:08:35.452Z,18.70
2019-03-11T07:21:58.253Z,18.90
2019-03-11T07:35:21.092Z,19.10
2019-03-11T07:48:43.889Z,19.10
2019-03-11T08:02:06.707Z,19.10
2019-03-11T08:15:29.559Z,18.90
2019-03-11T08:28:52.358Z,18.90
2019-03-11T08:42:15.175Z,18.80
2019-03-11T09:08:39.617Z,18.80
2019-03-11T09:21:46.875Z,18.80
2019-03-11T09:34:54.182Z,18.90
2019-03-11T09:48:01.571Z,18.90
2019-03-11T10:01:08.884Z,18.90
2019-03-11T10:14:32.973Z,18.90
2019-03-11T10:27:55.786Z,18.80
2019-03-11T10:54:20.272Z,18.80
2019-03-11T11:07:27.569Z,18.70
2019-03-11T11:20:34.857Z,18.80
2019-03-11T11:33:42.099Z,18.70
2019-03-11T11:46:49.385Z,18.70
2019-03-11T12:00:13.572Z,18.70
2019-03-11T12:13:36.400Z,18.70
2019-03-11T12:26:59.218Z,18.70
2019-03-11T12:40:22.012Z,18.70
2019-03-11T12:53:44.847Z,18.70
2019-03-11T13:07:07.655Z,18.60
2019-03-11T13:20:30.458Z,18.60
2019-03-11T13:33:53.291Z,18.60
2019-03-11T13:47:16.071Z,18.70
2019-03-11T14:13:40.553Z,18.60
2019-03-11T14:26:47.860Z,18.60
2019-03-11T14:39:55.191Z,18.60
2019-03-11T14:53:02.463Z,18.60
2019-03-11T15:19:12.775Z,18.70
2019-03-11T15:32:20.031Z,19.00
2019-03-11T15:45:37.684Z,19.40
2019-03-11T15:58:34.677Z,19.50
2019-03-11T16:11:41.951Z,19.60
2019-03-11T16:25:06.022Z,19.50
2019-03-11T16:38:28.888Z,19.50
2019-03-11T16:51:51.653Z,19.40
2019-03-11T17:05:14.529Z,19.40
2019-03-11T17:18:37.316Z,19.30
2019-03-11T17:32:00.130Z,19.30
2019-03-11T17:45:22.948Z,19.20
2019-03-11T17:58:45.754Z,19.20
2019-03-11T18:12:08.571Z,19.00
2019-03-11T18:25:31.420Z,19.20
2019-03-11T18:38:54.216Z,19.20
2019-03-11T18:52:17.051Z,19.10
2019-03-11T19:05:39.821Z,19.10
2019-03-11T19:19:02.679Z,19.10
2019-03-11T19:45:27.209Z,19.20
2019-03-11T19:58:34.647Z,19.30
2019-03-11T20:11:42.061Z,19.00
2019-03-11T20:24:49.423Z,19.20
2019-03-11T20:37:56.817Z,19.10
2019-03-11T20:51:20.532Z,19.20
2019-03-11T21:04:43.270Z,19.20
2019-03-11T21:18:06.119Z,19.20
2019-03-11T21:31:28.919Z,19.20
2019-03-11T21:44:51.749Z,18.00
2019-03-11T21:58:14.594Z,18.50
2019-03-11T22:11:37.335Z,18.80
2019-03-11T22:25:00.171Z,18.80
2019-03-11T22:38:22.966Z,18.80
2019-03-11T22:51:45.791Z,18.70
2019-03-11T23:05:08.592Z,18.70
2019-03-11T23:31:33.033Z,18.80
2019-03-11T23:44:40.331Z,18.70
2019-03-11T23:57:47.571Z,18.70
